createdAt,value
2023-11-26T00:02:25.261Z,1.75
2023-11-26T00:04:51.844Z,1.30
2023-11-26T00:07:21.002Z,1.52
2023-11-26T00:09:47.715Z,1.50
2023-11-26T00:12:14.354Z,1.63
2023-11-26T00:14:47.132Z,1.65
2023-11-26T00:17:13.766Z,1.10
2023-11-26T00:19:42.261Z,1.60
2023-11-26T00:22:09.043Z,1.63
2023-11-26T00:24:35.755Z,1.50
2023-11-26T00:27:03.282Z,1.60
2023-11-26T00:29:30.272Z,1.60
2023-11-26T00:31:57.210Z,1.67
2023-11-26T00:34:24.494Z,1.50
2023-11-26T00:36:51.098Z,1.50
2023-11-26T00:39:17.922Z,1.35
2023-11-26T00:41:47.565Z,1.52
2023-11-26T00:44:14.476Z,1.65
2023-11-26T00:46:41.212Z,1.42
2023-11-26T00:49:08.514Z,1.20
2023-11-26T00:51:35.807Z,1.60
2023-11-26T00:54:02.371Z,1.65
2023-11-26T00:56:38.711Z,1.65
2023-11-26T00:59:05.554Z,1.38
2023-11-26T01:01:33.205Z,1.40
2023-11-26T01:03:59.843Z,1.30
2023-11-26T01:06:26.477Z,1.55
2023-11-26T01:08:53.324Z,1.40
2023-11-26T01:11:19.923Z,1.38
2023-11-26T01:13:46.810Z,1.35
2023-11-26T01:16:13.816Z,1.75
2023-11-26T01:18:43.415Z,1.48
2023-11-26T01:21:09.956Z,1.30
2023-11-26T01:23:37.032Z,1.30
2023-11-26T01:26:03.838Z,1.20
2023-11-26T01:28:30.449Z,1.10
2023-11-26T01:30:57.007Z,1.30
2023-11-26T01:33:24.449Z,1.02
2023-11-26T01:35:51.356Z,1.30
2023-11-26T01:38:18.497Z,1.25
2023-11-26T01:40:46.191Z,1.30
2023-11-26T01:43:12.930Z,0.90
2023-11-26T01:45:39.895Z,1.40
2023-11-26T01:48:06.759Z,1.42
2023-11-26T01:50:33.889Z,1.42
2023-11-26T01:53:04.063Z,1.13
2023-11-26T01:55:32.493Z,1.30
2023-11-26T01:57:59.393Z,1.13
2023-11-26T02:00:26.197Z,1.20
2023-11-26T02:02:53.910Z,1.27
2023-11-26T02:05:34.836Z,1.00
2023-11-26T02:08:02.280Z,1.08
2023-11-26T02:10:31.197Z,1.10
2023-11-26T02:13:05.440Z,0.95
2023-11-26T02:15:32.776Z,1.30
2023-11-26T02:18:00.119Z,1.13
2023-11-26T02:20:27.660Z,1.70
2023-11-26T02:22:55.256Z,1.23
2023-11-26T02:25:24.807Z,1.10
2023-11-26T02:27:51.803Z,1.10
2023-11-26T02:30:21.909Z,1.35
2023-11-26T02:32:49.254Z,1.42
2023-11-26T02:35:15.958Z,1.40
2023-11-26T02:37:42.514Z,1.40
2023-11-26T02:40:09.990Z,1.77
2023-11-26T02:42:37.871Z,1.58
2023-11-26T02:45:05.204Z,1.40
2023-11-26T02:47:32.772Z,1.50
2023-11-26T02:49:59.538Z,1.40
2023-11-26T02:52:26.387Z,1.50
2023-11-26T02:54:52.889Z,1.60
2023-11-26T02:57:19.391Z,1.65
2023-11-26T02:59:46.388Z,1.50
2023-11-26T03:02:15.336Z,1.50
2023-11-26T03:04:49.764Z,1.60
2023-11-26T03:07:21.878Z,1.83
2023-11-26T03:12:52.598Z,1.40
2023-11-26T03:15:20.062Z,1.52
2023-11-26T03:17:49.144Z,2.08
2023-11-26T03:20:19.060Z,1.63
2023-11-26T03:22:46.073Z,1.67
2023-11-26T03:25:12.702Z,1.65
2023-11-26T03:27:40.802Z,2.17
2023-11-26T03:30:09.663Z,1.63
2023-11-26T03:32:37.305Z,1.90
2023-11-26T03:35:04.257Z,1.65
2023-11-26T03:37:30.879Z,1.70
2023-11-26T03:39:57.768Z,2.30
2023-11-26T03:42:29.162Z,1.33
2023-11-26T03:44:56.868Z,1.45
2023-11-26T03:47:24.785Z,1.65
2023-11-26T03:49:52.619Z,1.88
2023-11-26T03:52:20.190Z,2.38
2023-11-26T03:54:49.910Z,1.58
2023-11-26T03:57:17.114Z,1.65
2023-11-26T03:59:46.128Z,1.67
2023-11-26T04:02:13.236Z,1.58
2023-11-26T04:04:40.153Z,1.42
2023-11-26T04:07:08.523Z,1.60
2023-11-26T04:09:36.423Z,1.38
2023-11-26T04:12:03.346Z,1.60
2023-11-26T04:14:33.420Z,1.50
2023-11-26T04:17:00.695Z,1.42
2023-11-26T04:19:27.495Z,1.65
2023-11-26T04:21:54.373Z,1.80
2023-11-26T04:24:21.260Z,1.40
2023-11-26T04:26:50.902Z,1.67
2023-11-26T04:29:17.478Z,1.67
2023-11-26T04:31:44.557Z,1.70
2023-11-26T04:34:14.015Z,1.67
2023-11-26T04:36:40.858Z,1.50
2023-11-26T04:39:09.731Z,1.40
2023-11-26T04:41:36.367Z,1.42
2023-11-26T04:44:03.168Z,1.50
2023-11-26T04:46:30.037Z,1.40
2023-11-26T04:48:56.582Z,1.60
2023-11-26T04:51:23.571Z,1.40
2023-11-26T04:53:50.859Z,1.98
2023-11-26T04:56:20.080Z,1.40
2023-11-26T04:58:47.102Z,1.70
2023-11-26T05:01:17.782Z,1.98
2023-11-26T05:03:45.287Z,1.63
2023-11-26T05:06:14.481Z,1.75
2023-11-26T05:08:45.299Z,1.67
2023-11-26T05:11:12.321Z,1.50
2023-11-26T05:13:39.002Z,1.90
2023-11-26T05:16:08.690Z,1.40
2023-11-26T05:18:36.967Z,1.50
2023-11-26T05:21:03.982Z,1.55
2023-11-26T05:23:30.754Z,1.58
2023-11-26T05:25:57.729Z,1.83
2023-11-26T05:28:24.342Z,1.58
2023-11-26T05:30:50.932Z,1.65
2023-11-26T05:33:17.553Z,1.67
2023-11-26T05:35:44.517Z,1.60
2023-11-26T05:38:11.067Z,1.55
2023-11-26T05:40:39.777Z,1.50
2023-11-26T05:43:06.488Z,1.70
2023-11-26T05:45:33.038Z,1.58
2023-11-26T05:47:59.627Z,1.98
2023-11-26T05:50:30.609Z,1.80
2023-11-26T05:52:57.829Z,1.80
2023-11-26T05:55:24.514Z,1.83
2023-11-26T05:57:51.185Z,1.92
2023-11-26T06:00:17.838Z,1.90
2023-11-26T06:02:47.704Z,2.28
2023-11-26T06:05:14.325Z,2.25
2023-11-26T06:07:40.971Z,2.00
2023-11-26T06:10:09.444Z,1.90
2023-11-26T06:12:37.644Z,2.30
2023-11-26T06:15:04.583Z,2.10
2023-11-26T06:17:31.631Z,1.80
2023-11-26T06:19:58.468Z,1.73
2023-11-26T06:22:25.292Z,2.03
2023-11-26T06:24:51.776Z,1.83
2023-11-26T06:27:18.338Z,1.73
2023-11-26T06:29:45.557Z,2.13
2023-11-26T06:32:12.662Z,2.05
2023-11-26T06:34:39.931Z,2.20
2023-11-26T06:37:06.641Z,2.25
2023-11-26T06:39:34.113Z,2.45
2023-11-26T06:42:00.786Z,2.17
2023-11-26T06:44:27.582Z,2.13
2023-11-26T06:46:54.572Z,2.35
2023-11-26T06:49:21.179Z,2.53
2023-11-26T06:51:47.768Z,2.75
2023-11-26T06:54:17.281Z,2.28
2023-11-26T06:56:43.861Z,2.40
2023-11-26T06:59:10.534Z,2.03
2023-11-26T07:01:37.767Z,2.80
2023-11-26T07:04:07.247Z,3.58
2023-11-26T07:06:35.391Z,3.45
2023-11-26T07:09:10.624Z,2.40
2023-11-26T07:11:37.305Z,2.72
2023-11-26T07:14:03.866Z,2.88
2023-11-26T07:16:30.479Z,2.60
2023-11-26T07:18:57.102Z,1.98
2023-11-26T07:21:25.061Z,2.30
2023-11-26T07:23:52.174Z,2.22
2023-11-26T07:26:19.969Z,2.35
2023-11-26T07:28:52.177Z,2.65
2023-11-26T07:31:21.252Z,2.60
2023-11-26T07:33:48.105Z,2.50
2023-11-26T07:36:23.970Z,3.03
2023-11-26T07:38:54.958Z,2.60
2023-11-26T07:41:22.252Z,3.05
2023-11-26T07:43:51.083Z,2.83
2023-11-26T07:46:18.292Z,3.33
2023-11-26T07:48:47.139Z,3.58
2023-11-26T07:51:14.395Z,3.20
2023-11-26T07:53:41.753Z,2.90
2023-11-26T07:56:11.632Z,3.03
2023-11-26T07:58:38.297Z,3.20
2023-11-26T08:01:05.957Z,3.47
2023-11-26T08:03:33.751Z,3.15
2023-11-26T08:06:10.552Z,3.25
2023-11-26T08:08:38.768Z,2.58
2023-11-26T08:11:07.246Z,3.45
2023-11-26T08:13:39.885Z,3.10
2023-11-26T08:16:09.267Z,3.03
2023-11-26T08:18:40.813Z,3.13
2023-11-26T08:21:09.040Z,2.70
2023-11-26T08:23:42.314Z,2.90
2023-11-26T08:26:14.145Z,2.47
2023-11-26T08:28:42.048Z,2.63
2023-11-26T08:31:08.633Z,2.33
2023-11-26T08:33:40.595Z,2.40
2023-11-26T08:36:09.119Z,2.53
2023-11-26T08:38:43.555Z,2.53
2023-11-26T08:41:15.109Z,1.90
2023-11-26T08:43:44.676Z,2.30
2023-11-26T08:46:15.431Z,2.00
2023-11-26T08:48:45.725Z,2.13
2023-11-26T08:51:12.747Z,2.70
2023-11-26T08:53:39.524Z,2.25
2023-11-26T08:56:06.992Z,2.55
2023-11-26T08:58:34.089Z,2.15
2023-11-26T09:01:00.874Z,1.92
2023-11-26T09:03:27.939Z,2.13
2023-11-26T09:05:54.606Z,1.70
2023-11-26T09:08:21.710Z,2.42
2023-11-26T09:10:49.878Z,2.20
2023-11-26T09:13:23.131Z,2.03
2023-11-26T09:15:49.970Z,2.30
2023-11-26T09:18:16.822Z,2.08
2023-11-26T09:20:43.492Z,2.50
2023-11-26T09:23:10.340Z,2.38
2023-11-26T09:25:39.885Z,2.38
2023-11-26T09:28:06.878Z,2.15
2023-11-26T09:30:34.213Z,2.67
2023-11-26T09:33:01.215Z,2.47
2023-11-26T09:35:33.535Z,2.67
2023-11-26T09:38:00.236Z,2.17
2023-11-26T09:40:28.124Z,2.17
2023-11-26T09:42:57.566Z,2.20
2023-11-26T09:45:24.516Z,2.10
2023-11-26T09:47:51.150Z,2.17
2023-11-26T09:50:18.143Z,1.98
2023-11-26T09:52:49.356Z,2.10
2023-11-26T09:55:16.558Z,2.28
2023-11-26T09:57:43.483Z,1.83
2023-11-26T10:00:12.267Z,1.98
2023-11-26T10:02:45.148Z,1.95
2023-11-26T10:05:27.797Z,2.20
2023-11-26T10:07:57.252Z,2.17
2023-11-26T10:10:25.224Z,3.05
2023-11-26T10:13:06.608Z,2.13
2023-11-26T10:15:34.836Z,2.60
2023-11-26T10:18:09.921Z,2.25
2023-11-26T10:20:37.633Z,1.85
2023-11-26T10:23:04.233Z,2.50
2023-11-26T10:25:38.247Z,2.03
2023-11-26T10:28:14.000Z,1.60
2023-11-26T10:30:40.961Z,1.77
2023-11-26T10:33:09.676Z,1.40
2023-11-26T10:35:57.277Z,2.00
2023-11-26T10:38:37.010Z,1.83
2023-11-26T10:41:05.021Z,2.22
2023-11-26T10:43:42.248Z,1.88
2023-11-26T10:46:15.298Z,1.70
2023-11-26T10:48:49.742Z,1.35
2023-11-26T10:51:26.096Z,1.83
2023-11-26T10:54:11.657Z,1.40
2023-11-26T10:56:39.909Z,1.98
2023-11-26T10:59:18.314Z,1.80
2023-11-26T11:04:15.477Z,1.60
2023-11-26T11:06:45.930Z,1.92
2023-11-26T11:09:19.805Z,1.98
2023-11-26T11:12:02.191Z,2.03
2023-11-26T11:14:30.024Z,1.60
2023-11-26T11:16:56.743Z,1.60
2023-11-26T11:19:58.723Z,2.20
2023-11-26T11:22:35.703Z,1.60
2023-11-26T11:25:16.211Z,1.65
2023-11-26T11:27:56.347Z,2.25
2023-11-26T11:30:42.996Z,2.25
2023-11-26T11:33:12.064Z,1.45
2023-11-26T11:35:45.418Z,1.88
2023-11-26T11:38:13.194Z,1.83
2023-11-26T11:40:59.702Z,1.90
2023-11-26T11:43:28.677Z,2.63
2023-11-26T11:45:56.230Z,2.03
2023-11-26T11:48:43.802Z,1.52
2023-11-26T11:51:39.670Z,1.33
2023-11-26T11:54:10.220Z,1.65
2023-11-26T11:56:38.418Z,2.50
2023-11-26T11:59:05.343Z,2.10
2023-11-26T12:01:32.492Z,1.58
2023-11-26T12:04:02.005Z,1.52
2023-11-26T12:06:30.250Z,1.70
2023-11-26T12:08:59.874Z,1.40
2023-11-26T12:11:28.420Z,1.80
2023-11-26T12:13:56.770Z,1.30
2023-11-26T12:16:24.825Z,1.38
2023-11-26T12:18:57.331Z,1.35
2023-11-26T12:21:24.096Z,1.30
2023-11-26T12:23:51.868Z,1.02
2023-11-26T12:26:18.610Z,1.30
2023-11-26T12:28:46.980Z,1.13
2023-11-26T12:31:17.488Z,1.30
2023-11-26T12:33:48.556Z,1.20
2023-11-26T12:36:15.772Z,1.40
2023-11-26T12:38:44.029Z,1.95
2023-11-26T12:41:11.745Z,1.50
2023-11-26T12:43:40.350Z,1.50
2023-11-26T12:46:12.018Z,1.42
2023-11-26T12:48:44.411Z,1.58
2023-11-26T12:51:16.284Z,1.20
2023-11-26T12:53:42.856Z,1.30
2023-11-26T12:56:10.829Z,1.73
2023-11-26T12:58:37.689Z,1.42
2023-11-26T13:01:04.869Z,1.75
2023-11-26T13:03:31.840Z,1.67
2023-11-26T13:06:07.634Z,1.50
2023-11-26T13:08:34.759Z,1.40
2023-11-26T13:11:03.004Z,1.60
2023-11-26T13:13:33.016Z,1.40
2023-11-26T13:16:03.704Z,1.90
2023-11-26T13:18:33.117Z,2.90
2023-11-26T13:21:02.693Z,3.17
2023-11-26T13:23:30.386Z,5.50
2023-11-26T13:25:58.312Z,4.32
2023-11-26T13:28:28.634Z,2.85
2023-11-26T13:30:55.497Z,3.55
2023-11-26T13:33:22.805Z,2.88
2023-11-26T13:35:51.222Z,4.00
2023-11-26T13:38:18.060Z,2.80
2023-11-26T13:40:48.594Z,3.00
2023-11-26T13:43:19.986Z,2.78
2023-11-26T13:45:46.871Z,2.20
2023-11-26T13:48:14.367Z,2.70
2023-11-26T13:50:41.085Z,3.00
2023-11-26T13:53:08.856Z,2.45
2023-11-26T13:55:37.404Z,1.90
2023-11-26T13:58:04.714Z,2.28
2023-11-26T14:00:32.929Z,1.60
2023-11-26T14:03:00.450Z,1.60
2023-11-26T14:05:27.682Z,2.75
2023-11-26T14:07:54.811Z,1.88
2023-11-26T14:10:22.816Z,3.30
2023-11-26T14:12:52.611Z,2.30
2023-11-26T14:15:22.238Z,2.85
2023-11-26T14:17:50.279Z,4.35
2023-11-26T14:20:18.291Z,3.72
2023-11-26T14:22:51.213Z,3.10
2023-11-26T14:25:19.563Z,2.33
2023-11-26T14:27:49.356Z,1.83
2023-11-26T14:30:18.211Z,1.63
2023-11-26T14:32:48.610Z,2.03
2023-11-26T14:35:15.843Z,3.60
2023-11-26T14:37:44.006Z,5.53
2023-11-26T14:40:12.127Z,3.13
2023-11-26T14:42:39.145Z,1.95
2023-11-26T14:45:06.115Z,2.25
2023-11-26T14:47:32.811Z,2.55
2023-11-26T14:49:59.819Z,2.05
2023-11-26T14:52:26.578Z,1.90
2023-11-26T14:54:53.212Z,2.10
2023-11-26T14:57:19.916Z,2.10
2023-11-26T14:59:47.786Z,2.10
2023-11-26T15:02:19.172Z,1.90
2023-11-26T15:04:46.562Z,1.67
2023-11-26T15:07:14.523Z,1.45
2023-11-26T15:09:41.184Z,1.58
2023-11-26T15:12:07.916Z,1.42
2023-11-26T15:14:34.517Z,1.38
2023-11-26T15:17:03.534Z,1.85
2023-11-26T15:19:30.312Z,1.95
2023-11-26T15:21:56.904Z,1.63
2023-11-26T15:24:23.602Z,1.50
2023-11-26T15:26:50.570Z,1.35
2023-11-26T15:29:17.448Z,1.67
2023-11-26T15:31:43.982Z,2.15
2023-11-26T15:34:10.626Z,1.75
2023-11-26T15:36:37.518Z,1.70
2023-11-26T15:39:06.029Z,1.60
2023-11-26T15:41:34.066Z,1.48
2023-11-26T15:44:01.590Z,1.38
2023-11-26T15:46:28.478Z,1.70
2023-11-26T15:48:56.683Z,1.73
2023-11-26T15:51:24.258Z,1.70
2023-11-26T15:54:02.403Z,1.40
2023-11-26T15:56:31.926Z,1.25
2023-11-26T15:58:58.708Z,1.33
2023-11-26T16:01:25.617Z,1.60
2023-11-26T16:03:52.553Z,1.60
2023-11-26T16:06:20.232Z,1.48
2023-11-26T16:08:47.918Z,1.50
2023-11-26T16:11:15.100Z,1.50
2023-11-26T16:13:42.645Z,1.67
2023-11-26T16:16:09.859Z,1.58
2023-11-26T16:18:38.006Z,1.70
2023-11-26T16:21:04.844Z,1.75
2023-11-26T16:23:39.691Z,1.40
2023-11-26T16:26:06.763Z,1.45
2023-11-26T16:28:35.462Z,1.48
2023-11-26T16:31:07.728Z,1.50
2023-11-26T16:33:46.134Z,1.70
2023-11-26T16:36:22.441Z,2.00
2023-11-26T16:38:49.938Z,1.90
2023-11-26T16:41:19.473Z,1.70
2023-11-26T16:43:49.287Z,2.30
2023-11-26T16:46:18.367Z,1.73
2023-11-26T16:48:46.005Z,1.30
2023-11-26T16:51:14.078Z,1.70
2023-11-26T16:53:41.163Z,1.65
2023-11-26T16:56:08.975Z,2.13
2023-11-26T16:58:36.743Z,1.67
2023-11-26T17:01:04.858Z,2.20
2023-11-26T17:03:32.419Z,1.90
2023-11-26T17:06:02.136Z,2.00
2023-11-26T17:08:30.020Z,1.83
2023-11-26T17:11:00.415Z,1.67
2023-11-26T17:13:27.947Z,1.85
2023-11-26T17:15:55.099Z,2.05
2023-11-26T17:18:22.268Z,1.80
2023-11-26T17:20:49.087Z,2.10
2023-11-26T17:23:18.942Z,2.00
2023-11-26T17:25:48.244Z,1.77
2023-11-26T17:28:18.474Z,2.00
2023-11-26T17:30:47.413Z,2.17
2023-11-26T17:33:15.733Z,2.13
2023-11-26T17:35:42.537Z,2.58
2023-11-26T17:38:09.365Z,1.95
2023-11-26T17:40:36.373Z,2.42
2023-11-26T17:45:30.710Z,2.25
2023-11-26T17:47:58.210Z,3.53
2023-11-26T17:50:24.831Z,3.60
2023-11-26T17:52:56.842Z,4.15
2023-11-26T17:55:32.878Z,3.50
2023-11-26T17:58:00.333Z,3.97
2023-11-26T18:00:27.050Z,4.05
2023-11-26T18:02:54.692Z,4.50
2023-11-26T18:05:21.347Z,5.05
2023-11-26T18:07:48.304Z,5.35
2023-11-26T18:10:14.910Z,4.00
2023-11-26T18:12:45.389Z,4.30
2023-11-26T18:15:15.370Z,4.57
2023-11-26T18:17:42.467Z,4.55
2023-11-26T18:20:11.834Z,4.20
2023-11-26T18:22:38.450Z,4.07
2023-11-26T18:25:06.912Z,3.63
2023-11-26T18:27:35.630Z,3.45
2023-11-26T18:30:10.389Z,3.60
2023-11-26T18:32:37.092Z,3.60
2023-11-26T18:35:04.844Z,4.30
2023-11-26T18:37:33.349Z,3.60
2023-11-26T18:40:01.235Z,4.10
2023-11-26T18:42:27.970Z,4.10
2023-11-26T18:44:54.614Z,4.43
2023-11-26T18:47:21.798Z,4.07
2023-11-26T18:49:50.519Z,4.13
2023-11-26T18:52:18.754Z,3.97
2023-11-26T18:54:46.833Z,4.00
2023-11-26T18:57:16.412Z,4.05
2023-11-26T18:59:45.352Z,4.30
2023-11-26T19:02:12.094Z,3.95
2023-11-26T19:04:41.705Z,3.50
2023-11-26T19:07:11.537Z,4.13
2023-11-26T19:09:41.636Z,3.47
2023-11-26T19:12:08.725Z,4.00
2023-11-26T19:14:36.858Z,4.05
2023-11-26T19:17:03.627Z,4.18
2023-11-26T19:19:30.203Z,3.90
2023-11-26T19:21:58.927Z,3.92
2023-11-26T19:24:25.757Z,3.78
2023-11-26T19:26:53.892Z,3.83
2023-11-26T19:29:22.522Z,4.47
2023-11-26T19:31:54.629Z,5.18
2023-11-26T19:36:51.114Z,5.47
2023-11-26T19:39:19.441Z,6.35
2023-11-26T19:41:47.060Z,5.65
2023-11-26T19:44:16.600Z,5.55
2023-11-26T19:46:44.893Z,4.75
2023-11-26T19:49:13.815Z,5.03
2023-11-26T19:51:42.149Z,4.65
2023-11-26T19:54:11.958Z,5.45
2023-11-26T19:56:40.196Z,4.78
2023-11-26T19:59:08.184Z,5.82
2023-11-26T20:01:39.138Z,6.40
2023-11-26T20:04:06.845Z,5.00
2023-11-26T20:06:33.933Z,5.75
2023-11-26T20:09:00.639Z,5.53
2023-11-26T20:11:29.348Z,6.30
2023-11-26T20:13:56.199Z,5.40
2023-11-26T20:16:25.929Z,6.22
2023-11-26T20:18:57.441Z,5.90
2023-11-26T20:21:26.440Z,9.45
2023-11-26T20:24:00.299Z,9.20
2023-11-26T20:26:27.119Z,9.77
2023-11-26T20:28:54.123Z,7.43
2023-11-26T20:31:21.784Z,6.72
2023-11-26T20:33:48.800Z,7.82
2023-11-26T20:36:21.456Z,8.23
2023-11-26T20:38:49.072Z,7.85
2023-11-26T20:41:15.673Z,8.60
2023-11-26T20:43:44.532Z,8.93
2023-11-26T20:46:20.430Z,7.47
2023-11-26T20:48:47.338Z,7.50
2023-11-26T20:51:21.998Z,7.78
2023-11-26T20:54:01.577Z,7.82
2023-11-26T20:56:29.199Z,8.10
2023-11-26T20:58:56.696Z,8.43
2023-11-26T21:01:24.167Z,9.05
2023-11-26T21:03:51.274Z,10.27
2023-11-26T21:06:19.346Z,10.80
2023-11-26T21:08:46.085Z,11.05
2023-11-26T21:11:13.846Z,10.75
2023-11-26T21:13:41.646Z,10.15
2023-11-26T21:16:09.449Z,10.55
2023-11-26T21:18:36.373Z,9.98
2023-11-26T21:21:04.930Z,10.15
2023-11-26T21:23:34.588Z,10.40
2023-11-26T21:26:01.126Z,9.20
2023-11-26T21:28:28.237Z,10.48
2023-11-26T21:30:55.114Z,9.73
2023-11-26T21:33:23.563Z,9.93
2023-11-26T21:35:50.098Z,9.65
2023-11-26T21:38:16.755Z,8.95
2023-11-26T21:40:52.938Z,8.73
2023-11-26T21:43:23.863Z,7.28
2023-11-26T21:45:51.592Z,8.45
2023-11-26T21:48:20.013Z,8.30
2023-11-26T21:50:48.292Z,7.88
2023-11-26T21:53:14.893Z,8.25
2023-11-26T21:55:41.592Z,8.57
2023-11-26T21:58:08.379Z,9.60
2023-11-26T22:00:36.365Z,8.68
2023-11-26T22:03:04.102Z,8.32
2023-11-26T22:05:31.931Z,6.50
2023-11-26T22:07:58.617Z,6.53
2023-11-26T22:10:25.231Z,6.28
2023-11-26T22:12:54.937Z,6.03
2023-11-26T22:15:22.393Z,6.03
2023-11-26T22:17:49.043Z,5.00
2023-11-26T22:20:15.894Z,5.32
2023-11-26T22:22:44.345Z,5.03
2023-11-26T22:25:13.493Z,5.50
2023-11-26T22:27:40.361Z,5.18
2023-11-26T22:30:10.587Z,4.80
2023-11-26T22:32:38.740Z,4.90
2023-11-26T22:35:06.649Z,5.75
2023-11-26T22:37:34.204Z,5.45
2023-11-26T22:40:01.096Z,5.63
2023-11-26T22:42:27.975Z,6.00
2023-11-26T22:44:54.629Z,5.70
2023-11-26T22:47:21.318Z,5.55
2023-11-26T22:49:49.752Z,6.22
2023-11-26T22:52:17.257Z,6.15
2023-11-26T22:54:44.348Z,5.32
2023-11-26T22:57:10.995Z,5.70
2023-11-26T22:59:37.838Z,6.00
2023-11-26T23:02:09.377Z,6.22
2023-11-26T23:04:38.818Z,6.03
2023-11-26T23:07:07.421Z,5.95
2023-11-26T23:09:35.272Z,5.18
2023-11-26T23:12:02.074Z,5.45
2023-11-26T23:14:29.206Z,5.03
2023-11-26T23:16:56.130Z,6.10
2023-11-26T23:19:23.015Z,6.82
2023-11-26T23:21:51.169Z,6.78
2023-11-26T23:24:17.766Z,6.18
2023-11-26T23:26:44.481Z,7.55
2023-11-26T23:29:11.342Z,7.20
2023-11-26T23:31:40.490Z,6.43
2023-11-26T23:34:07.128Z,6.00
2023-11-26T23:36:33.929Z,6.78
2023-11-26T23:39:01.895Z,8.10
2023-11-26T23:41:32.185Z,7.85
2023-11-26T23:43:59.322Z,7.78
2023-11-26T23:46:26.401Z,7.13
2023-11-26T23:48:54.903Z,7.93
2023-11-26T23:51:21.492Z,6.95
2023-11-26T23:53:48.305Z,7.00
2023-11-26T23:56:18.992Z,7.40
2023-11-26T23:58:45.798Z,6.40
